sensor_id;sensor_type;location;lat;lon;timestamp;P1;durP1;ratioP1;P2;durP2;ratioP2
56577;SDS011;42461;53.192;5.646;2022-07-23T00:00:35;12.57;;;11.43;;
56577;SDS011;42461;53.192;5.646;2022-07-23T00:03:00;90.07;;;82.15;;
56577;SDS011;42461;53.192;5.646;2022-07-23T00:05:26;56.53;;;51.42;;
56577;SDS011;42461;53.192;5.646;2022-07-23T00:07:52;36.35;;;33.08;;
56577;SDS011;42461;53.192;5.646;2022-07-23T00:10:18;11.80;;;10.70;;
56577;SDS011;42461;53.192;5.646;2022-07-23T00:12:44;7.35;;;6.40;;
56577;SDS011;42461;53.192;5.646;2022-07-23T00:15:10;7.82;;;4.90;;
56577;SDS011;42461;53.192;5.646;2022-07-23T00:17:36;5.93;;;4.50;;
56577;SDS011;42461;53.192;5.646;2022-07-23T00:20:03;5.13;;;4.63;;
56577;SDS011;42461;53.192;5.646;2022-07-23T00:22:29;6.13;;;4.38;;
56577;SDS011;42461;53.192;5.646;2022-07-23T00:24:55;5.63;;;4.85;;
56577;SDS011;42461;53.192;5.646;2022-07-23T00:27:22;7.50;;;5.05;;
56577;SDS011;42461;53.192;5.646;2022-07-23T00:29:48;6.43;;;5.15;;
56577;SDS011;42461;53.192;5.646;2022-07-23T00:32:14;7.45;;;5.20;;
56577;SDS011;42461;53.192;5.646;2022-07-23T00:34:40;7.35;;;5.57;;
56577;SDS011;42461;53.192;5.646;2022-07-23T00:37:06;6.78;;;4.97;;
56577;SDS011;42461;53.192;5.646;2022-07-23T00:39:32;5.65;;;5.05;;
56577;SDS011;42461;53.192;5.646;2022-07-23T00:41:58;6.82;;;4.90;;
56577;SDS011;42461;53.192;5.646;2022-07-23T00:44:25;6.10;;;4.72;;
56577;SDS011;42461;53.192;5.646;2022-07-23T00:46:52;5.63;;;4.70;;
56577;SDS011;42461;53.192;5.646;2022-07-23T00:49:19;9.02;;;4.82;;
56577;SDS011;42461;53.192;5.646;2022-07-23T00:51:45;7.20;;;4.97;;
56577;SDS011;42461;53.192;5.646;2022-07-23T00:54:12;5.63;;;4.70;;
56577;SDS011;42461;53.192;5.646;2022-07-23T00:56:38;5.53;;;4.40;;
56577;SDS011;42461;53.192;5.646;2022-07-23T00:59:04;5.70;;;4.43;;
56577;SDS011;42461;53.192;5.646;2022-07-23T01:01:31;6.18;;;4.60;;
56577;SDS011;42461;53.192;5.646;2022-07-23T01:03:57;6.00;;;4.68;;
56577;SDS011;42461;53.192;5.646;2022-07-23T01:06:23;5.15;;;4.47;;
56577;SDS011;42461;53.192;5.646;2022-07-23T01:08:49;8.25;;;4.90;;
56577;SDS011;42461;53.192;5.646;2022-07-23T01:11:15;8.30;;;5.28;;
56577;SDS011;42461;53.192;5.646;2022-07-23T01:13:44;8.52;;;5.50;;
56577;SDS011;42461;53.192;5.646;2022-07-23T01:16:10;7.85;;;5.07;;
56577;SDS011;42461;53.192;5.646;2022-07-23T01:18:36;7.45;;;5.22;;
56577;SDS011;42461;53.192;5.646;2022-07-23T01:21:02;6.80;;;5.05;;
56577;SDS011;42461;53.192;5.646;2022-07-23T01:23:28;5.70;;;5.10;;
56577;SDS011;42461;53.192;5.646;2022-07-23T01:25:54;6.22;;;5.10;;
56577;SDS011;42461;53.192;5.646;2022-07-23T01:28:21;10.50;;;5.22;;
56577;SDS011;42461;53.192;5.646;2022-07-23T01:30:47;5.60;;;5.10;;
56577;SDS011;42461;53.192;5.646;2022-07-23T01:33:13;5.35;;;4.78;;
56577;SDS011;42461;53.192;5.646;2022-07-23T01:35:39;6.45;;;5.60;;
56577;SDS011;42461;53.192;5.646;2022-07-23T01:38:05;5.72;;;5.22;;
56577;SDS011;42461;53.192;5.646;2022-07-23T01:40:31;7.10;;;5.60;;
56577;SDS011;42461;53.192;5.646;2022-07-23T01:42:57;7.13;;;5.90;;
56577;SDS011;42461;53.192;5.646;2022-07-23T01:45:23;7.32;;;5.65;;
56577;SDS011;42461;53.192;5.646;2022-07-23T01:47:49;6.82;;;5.88;;
56577;SDS011;42461;53.192;5.646;2022-07-23T01:50:16;6.85;;;5.70;;
56577;SDS011;42461;53.192;5.646;2022-07-23T01:52:42;6.68;;;5.57;;
56577;SDS011;42461;53.192;5.646;2022-07-23T01:55:08;6.63;;;5.93;;
56577;SDS011;42461;53.192;5.646;2022-07-23T01:57:34;6.60;;;5.78;;
56577;SDS011;42461;53.192;5.646;2022-07-23T02:00:00;6.97;;;5.50;;
56577;SDS011;42461;53.192;5.646;2022-07-23T02:02:26;7.05;;;5.85;;
56577;SDS011;42461;53.192;5.646;2022-07-23T02:04:52;6.18;;;5.57;;
56577;SDS011;42461;53.192;5.646;2022-07-23T02:07:18;6.32;;;5.72;;
56577;SDS011;42461;53.192;5.646;2022-07-23T02:09:44;6.60;;;5.93;;
56577;SDS011;42461;53.192;5.646;2022-07-23T02:12:10;7.82;;;5.70;;
56577;SDS011;42461;53.192;5.646;2022-07-23T02:14:36;6.40;;;5.60;;
56577;SDS011;42461;53.192;5.646;2022-07-23T02:17:02;7.80;;;5.78;;
56577;SDS011;42461;53.192;5.646;2022-07-23T02:19:28;7.20;;;5.47;;
56577;SDS011;42461;53.192;5.646;2022-07-23T02:21:54;6.05;;;5.10;;
56577;SDS011;42461;53.192;5.646;2022-07-23T02:24:20;8.05;;;5.43;;
56577;SDS011;42461;53.192;5.646;2022-07-23T02:26:46;8.45;;;5.95;;
56577;SDS011;42461;53.192;5.646;2022-07-23T02:29:12;6.18;;;5.65;;
56577;SDS011;42461;53.192;5.646;2022-07-23T02:31:38;8.13;;;5.63;;
56577;SDS011;42461;53.192;5.646;2022-07-23T02:34:04;5.50;;;5.00;;
56577;SDS011;42461;53.192;5.646;2022-07-23T02:36:31;6.80;;;5.03;;
56577;SDS011;42461;53.192;5.646;2022-07-23T02:38:57;6.80;;;5.22;;
56577;SDS011;42461;53.192;5.646;2022-07-23T02:41:23;5.18;;;4.75;;
56577;SDS011;42461;53.192;5.646;2022-07-23T02:43:49;7.95;;;5.30;;
56577;SDS011;42461;53.192;5.646;2022-07-23T02:46:15;6.30;;;5.05;;
56577;SDS011;42461;53.192;5.646;2022-07-23T02:48:41;6.20;;;5.03;;
56577;SDS011;42461;53.192;5.646;2022-07-23T02:51:07;6.70;;;5.45;;
56577;SDS011;42461;53.192;5.646;2022-07-23T02:53:33;5.68;;;4.97;;
56577;SDS011;42461;53.192;5.646;2022-07-23T02:55:59;7.15;;;5.60;;
56577;SDS011;42461;53.192;5.646;2022-07-23T02:58:25;5.10;;;4.60;;
56577;SDS011;42461;53.192;5.646;2022-07-23T03:00:52;4.97;;;4.43;;
56577;SDS011;42461;53.192;5.646;2022-07-23T03:03:18;5.70;;;5.00;;
56577;SDS011;42461;53.192;5.646;2022-07-23T03:05:44;6.75;;;4.78;;
56577;SDS011;42461;53.192;5.646;2022-07-23T03:08:10;7.65;;;4.95;;
56577;SDS011;42461;53.192;5.646;2022-07-23T03:10:36;6.10;;;4.38;;
56577;SDS011;42461;53.192;5.646;2022-07-23T03:13:02;5.50;;;4.10;;
56577;SDS011;42461;53.192;5.646;2022-07-23T03:15:28;5.97;;;4.50;;
56577;SDS011;42461;53.192;5.646;2022-07-23T03:17:54;4.70;;;4.18;;
56577;SDS011;42461;53.192;5.646;2022-07-23T03:20:20;6.45;;;4.57;;
56577;SDS011;42461;53.192;5.646;2022-07-23T03:22:46;4.78;;;4.15;;
56577;SDS011;42461;53.192;5.646;2022-07-23T03:25:12;5.88;;;4.38;;
56577;SDS011;42461;53.192;5.646;2022-07-23T03:27:38;6.72;;;4.35;;
56577;SDS011;42461;53.192;5.646;2022-07-23T03:30:04;6.72;;;4.55;;
56577;SDS011;42461;53.192;5.646;2022-07-23T03:32:30;5.57;;;4.50;;
56577;SDS011;42461;53.192;5.646;2022-07-23T03:34:56;4.55;;;4.15;;
56577;SDS011;42461;53.192;5.646;2022-07-23T03:37:22;6.85;;;4.35;;
56577;SDS011;42461;53.192;5.646;2022-07-23T03:39:49;5.30;;;4.80;;
56577;SDS011;42461;53.192;5.646;2022-07-23T03:42:15;5.10;;;4.60;;
56577;SDS011;42461;53.192;5.646;2022-07-23T03:44:41;6.35;;;5.03;;
56577;SDS011;42461;53.192;5.646;2022-07-23T03:47:07;5.78;;;4.45;;
56577;SDS011;42461;53.192;5.646;2022-07-23T03:49:33;6.65;;;4.57;;
56577;SDS011;42461;53.192;5.646;2022-07-23T03:51:59;4.55;;;3.97;;
56577;SDS011;42461;53.192;5.646;2022-07-23T03:54:25;6.50;;;4.03;;
56577;SDS011;42461;53.192;5.646;2022-07-23T03:56:51;5.13;;;4.63;;
56577;SDS011;42461;53.192;5.646;2022-07-23T03:59:17;8.27;;;5.03;;
56577;SDS011;42461;53.192;5.646;2022-07-23T04:01:43;5.53;;;4.90;;
56577;SDS011;42461;53.192;5.646;2022-07-23T04:04:09;5.70;;;5.10;;
56577;SDS011;42461;53.192;5.646;2022-07-23T04:06:35;6.55;;;5.40;;
56577;SDS011;42461;53.192;5.646;2022-07-23T04:09:01;7.00;;;5.22;;
56577;SDS011;42461;53.192;5.646;2022-07-23T04:11:28;5.40;;;4.90;;
56577;SDS011;42461;53.192;5.646;2022-07-23T04:13:54;7.28;;;4.95;;
56577;SDS011;42461;53.192;5.646;2022-07-23T04:16:20;6.80;;;5.03;;
56577;SDS011;42461;53.192;5.646;2022-07-23T04:18:45;7.80;;;5.22;;
56577;SDS011;42461;53.192;5.646;2022-07-23T04:21:11;6.63;;;5.53;;
56577;SDS011;42461;53.192;5.646;2022-07-23T04:23:37;6.38;;;5.20;;
56577;SDS011;42461;53.192;5.646;2022-07-23T04:26:03;6.07;;;5.18;;
56577;SDS011;42461;53.192;5.646;2022-07-23T04:28:29;5.90;;;5.25;;
56577;SDS011;42461;53.192;5.646;2022-07-23T04:30:56;5.85;;;5.03;;
56577;SDS011;42461;53.192;5.646;2022-07-23T04:33:22;5.40;;;4.82;;
56577;SDS011;42461;53.192;5.646;2022-07-23T04:35:48;5.40;;;4.90;;
56577;SDS011;42461;53.192;5.646;2022-07-23T04:38:14;6.68;;;5.53;;
56577;SDS011;42461;53.192;5.646;2022-07-23T04:40:40;5.32;;;4.82;;
56577;SDS011;42461;53.192;5.646;2022-07-23T04:43:06;6.85;;;4.95;;
56577;SDS011;42461;53.192;5.646;2022-07-23T04:45:32;5.63;;;5.03;;
56577;SDS011;42461;53.192;5.646;2022-07-23T04:47:58;5.40;;;4.90;;
56577;SDS011;42461;53.192;5.646;2022-07-23T04:50:24;8.85;;;5.30;;
56577;SDS011;42461;53.192;5.646;2022-07-23T04:52:50;5.85;;;5.25;;
56577;SDS011;42461;53.192;5.646;2022-07-23T04:55:16;5.90;;;5.30;;
56577;SDS011;42461;53.192;5.646;2022-07-23T04:57:43;5.80;;;5.20;;
56577;SDS011;42461;53.192;5.646;2022-07-23T05:00:09;7.47;;;5.03;;
56577;SDS011;42461;53.192;5.646;2022-07-23T05:02:35;5.90;;;5.15;;
56577;SDS011;42461;53.192;5.646;2022-07-23T05:05:01;5.40;;;4.88;;
56577;SDS011;42461;53.192;5.646;2022-07-23T05:07:27;5.07;;;4.57;;
56577;SDS011;42461;53.192;5.646;2022-07-23T05:09:53;5.03;;;4.53;;
56577;SDS011;42461;53.192;5.646;2022-07-23T05:12:19;5.95;;;4.97;;
56577;SDS011;42461;53.192;5.646;2022-07-23T05:14:45;5.05;;;4.03;;
56577;SDS011;42461;53.192;5.646;2022-07-23T05:17:11;6.35;;;4.22;;
56577;SDS011;42461;53.192;5.646;2022-07-23T05:19:37;5.80;;;4.45;;
56577;SDS011;42461;53.192;5.646;2022-07-23T05:22:03;4.22;;;3.47;;
56577;SDS011;42461;53.192;5.646;2022-07-23T05:24:29;5.47;;;3.65;;
56577;SDS011;42461;53.192;5.646;2022-07-23T05:26:55;5.10;;;3.63;;
56577;SDS011;42461;53.192;5.646;2022-07-23T05:29:21;4.78;;;3.28;;
56577;SDS011;42461;53.192;5.646;2022-07-23T05:31:47;4.60;;;3.10;;
56577;SDS011;42461;53.192;5.646;2022-07-23T05:34:13;3.15;;;2.80;;
56577;SDS011;42461;53.192;5.646;2022-07-23T05:36:39;5.50;;;3.20;;
56577;SDS011;42461;53.192;5.646;2022-07-23T05:39:05;3.10;;;2.40;;
56577;SDS011;42461;53.192;5.646;2022-07-23T05:41:31;3.13;;;2.22;;
56577;SDS011;42461;53.192;5.646;2022-07-23T05:43:57;2.25;;;2.00;;
56577;SDS011;42461;53.192;5.646;2022-07-23T05:46:23;3.17;;;1.95;;
56577;SDS011;42461;53.192;5.646;2022-07-23T05:48:49;2.83;;;1.73;;
56577;SDS011;42461;53.192;5.646;2022-07-23T05:51:24;1.73;;;1.40;;
56577;SDS011;42461;53.192;5.646;2022-07-23T05:53:51;1.38;;;1.15;;
56577;SDS011;42461;53.192;5.646;2022-07-23T05:56:17;2.03;;;1.50;;
56577;SDS011;42461;53.192;5.646;2022-07-23T05:58:43;3.22;;;1.50;;
56577;SDS011;42461;53.192;5.646;2022-07-23T06:01:09;1.48;;;1.10;;
56577;SDS011;42461;53.192;5.646;2022-07-23T06:03:37;1.95;;;1.20;;
56577;SDS011;42461;53.192;5.646;2022-07-23T06:06:03;3.75;;;1.20;;
56577;SDS011;42461;53.192;5.646;2022-07-23T06:08:29;2.38;;;1.38;;
56577;SDS011;42461;53.192;5.646;2022-07-23T06:10:55;2.30;;;1.20;;
56577;SDS011;42461;53.192;5.646;2022-07-23T06:13:21;3.45;;;1.52;;
56577;SDS011;42461;53.192;5.646;2022-07-23T06:15:47;1.50;;;0.93;;
56577;SDS011;42461;53.192;5.646;2022-07-23T06:18:13;1.10;;;1.00;;
56577;SDS011;42461;53.192;5.646;2022-07-23T06:20:40;2.60;;;1.00;;
56577;SDS011;42461;53.192;5.646;2022-07-23T06:23:06;1.58;;;1.00;;
56577;SDS011;42461;53.192;5.646;2022-07-23T06:25:32;1.60;;;1.20;;
56577;SDS011;42461;53.192;5.646;2022-07-23T06:27:58;1.77;;;0.88;;
56577;SDS011;42461;53.192;5.646;2022-07-23T06:30:25;1.20;;;0.93;;
56577;SDS011;42461;53.192;5.646;2022-07-23T06:32:51;1.40;;;0.98;;
56577;SDS011;42461;53.192;5.646;2022-07-23T06:35:17;3.70;;;1.10;;
56577;SDS011;42461;53.192;5.646;2022-07-23T06:37:43;1.92;;;1.40;;
56577;SDS011;42461;53.192;5.646;2022-07-23T06:40:09;2.47;;;1.10;;
56577;SDS011;42461;53.192;5.646;2022-07-23T06:42:35;1.50;;;1.00;;
56577;SDS011;42461;53.192;5.646;2022-07-23T06:45:04;1.30;;;1.00;;
56577;SDS011;42461;53.192;5.646;2022-07-23T06:47:30;1.80;;;1.08;;
56577;SDS011;42461;53.192;5.646;2022-07-23T06:49:56;1.85;;;1.05;;
56577;SDS011;42461;53.192;5.646;2022-07-23T06:52:22;2.08;;;0.90;;
56577;SDS011;42461;53.192;5.646;2022-07-23T06:54:48;1.45;;;0.98;;
56577;SDS011;42461;53.192;5.646;2022-07-23T06:57:14;0.80;;;0.80;;
56577;SDS011;42461;53.192;5.646;2022-07-23T06:59:40;1.33;;;1.05;;
56577;SDS011;42461;53.192;5.646;2022-07-23T07:02:06;1.13;;;1.10;;
56577;SDS011;42461;53.192;5.646;2022-07-23T07:04:33;2.53;;;1.10;;
56577;SDS011;42461;53.192;5.646;2022-07-23T07:06:59;2.08;;;1.13;;
56577;SDS011;42461;53.192;5.646;2022-07-23T07:09:25;2.30;;;1.10;;
56577;SDS011;42461;53.192;5.646;2022-07-23T07:11:51;1.08;;;1.00;;
56577;SDS011;42461;53.192;5.646;2022-07-23T07:14:17;2.28;;;1.08;;
56577;SDS011;42461;53.192;5.646;2022-07-23T07:16:43;2.33;;;1.20;;
56577;SDS011;42461;53.192;5.646;2022-07-23T07:19:09;3.17;;;1.13;;
56577;SDS011;42461;53.192;5.646;2022-07-23T07:21:35;2.05;;;1.00;;
56577;SDS011;42461;53.192;5.646;2022-07-23T07:24:01;2.72;;;1.10;;
56577;SDS011;42461;53.192;5.646;2022-07-23T07:26:27;1.95;;;1.20;;
56577;SDS011;42461;53.192;5.646;2022-07-23T07:28:54;1.48;;;1.00;;
56577;SDS011;42461;53.192;5.646;2022-07-23T07:31:20;4.22;;;1.13;;
56577;SDS011;42461;53.192;5.646;2022-07-23T07:33:46;2.03;;;1.10;;
56577;SDS011;42461;53.192;5.646;2022-07-23T07:36:12;1.65;;;0.90;;
56577;SDS011;42461;53.192;5.646;2022-07-23T07:38:39;2.88;;;1.05;;
56577;SDS011;42461;53.192;5.646;2022-07-23T07:41:05;1.55;;;1.00;;
56577;SDS011;42461;53.192;5.646;2022-07-23T07:43:32;2.65;;;1.00;;
56577;SDS011;42461;53.192;5.646;2022-07-23T07:45:58;1.38;;;1.27;;
56577;SDS011;42461;53.192;5.646;2022-07-23T07:48:24;1.27;;;1.00;;
56577;SDS011;42461;53.192;5.646;2022-07-23T07:50:50;2.60;;;1.00;;
56577;SDS011;42461;53.192;5.646;2022-07-23T07:53:16;0.82;;;0.80;;
56577;SDS011;42461;53.192;5.646;2022-07-23T07:55:42;1.13;;;0.77;;
56577;SDS011;42461;53.192;5.646;2022-07-23T07:58:08;2.42;;;1.15;;
56577;SDS011;42461;53.192;5.646;2022-07-23T08:00:34;1.35;;;0.95;;
56577;SDS011;42461;53.192;5.646;2022-07-23T08:03:00;1.98;;;1.42;;
56577;SDS011;42461;53.192;5.646;2022-07-23T08:05:27;1.90;;;0.95;;
56577;SDS011;42461;53.192;5.646;2022-07-23T08:07:54;1.63;;;1.33;;
56577;SDS011;42461;53.192;5.646;2022-07-23T08:10:24;2.35;;;1.40;;
56577;SDS011;42461;53.192;5.646;2022-07-23T08:12:55;1.58;;;1.10;;
56577;SDS011;42461;53.192;5.646;2022-07-23T08:15:22;2.10;;;1.08;;
56577;SDS011;42461;53.192;5.646;2022-07-23T08:17:48;1.48;;;1.00;;
56577;SDS011;42461;53.192;5.646;2022-07-23T08:20:16;2.90;;;0.85;;
56577;SDS011;42461;53.192;5.646;2022-07-23T08:22:43;1.85;;;0.90;;
56577;SDS011;42461;53.192;5.646;2022-07-23T08:25:09;2.13;;;1.20;;
56577;SDS011;42461;53.192;5.646;2022-07-23T08:27:35;1.95;;;1.35;;
56577;SDS011;42461;53.192;5.646;2022-07-23T08:30:02;2.53;;;0.93;;
56577;SDS011;42461;53.192;5.646;2022-07-23T08:32:28;3.33;;;1.40;;
56577;SDS011;42461;53.192;5.646;2022-07-23T08:34:54;2.25;;;1.10;;
56577;SDS011;42461;53.192;5.646;2022-07-23T08:37:20;1.30;;;0.85;;
56577;SDS011;42461;53.192;5.646;2022-07-23T08:39:46;3.58;;;1.63;;
56577;SDS011;42461;53.192;5.646;2022-07-23T08:42:13;1.50;;;1.05;;
56577;SDS011;42461;53.192;5.646;2022-07-23T08:44:44;1.58;;;1.10;;
56577;SDS011;42461;53.192;5.646;2022-07-23T08:47:11;1.20;;;1.08;;
56577;SDS011;42461;53.192;5.646;2022-07-23T08:49:38;2.85;;;1.20;;
56577;SDS011;42461;53.192;5.646;2022-07-23T08:52:04;2.55;;;1.10;;
56577;SDS011;42461;53.192;5.646;2022-07-23T08:54:31;2.75;;;1.10;;
56577;SDS011;42461;53.192;5.646;2022-07-23T08:56:57;2.35;;;1.17;;
56577;SDS011;42461;53.192;5.646;2022-07-23T08:59:23;2.20;;;1.10;;
56577;SDS011;42461;53.192;5.646;2022-07-23T09:01:51;2.83;;;1.40;;
56577;SDS011;42461;53.192;5.646;2022-07-23T09:04:17;2.38;;;1.23;;
56577;SDS011;42461;53.192;5.646;2022-07-23T09:06:43;3.70;;;1.30;;
56577;SDS011;42461;53.192;5.646;2022-07-23T09:09:20;2.70;;;1.50;;
56577;SDS011;42461;53.192;5.646;2022-07-23T09:11:47;2.70;;;1.10;;
56577;SDS011;42461;53.192;5.646;2022-07-23T09:14:13;1.38;;;1.10;;
56577;SDS011;42461;53.192;5.646;2022-07-23T09:16:39;2.20;;;1.35;;
56577;SDS011;42461;53.192;5.646;2022-07-23T09:19:06;1.75;;;1.30;;
56577;SDS011;42461;53.192;5.646;2022-07-23T09:21:33;2.20;;;1.20;;
56577;SDS011;42461;53.192;5.646;2022-07-23T09:26:47;2.75;;;1.30;;
56577;SDS011;42461;53.192;5.646;2022-07-23T09:29:18;1.63;;;1.15;;
56577;SDS011;42461;53.192;5.646;2022-07-23T09:34:15;2.50;;;1.30;;
56577;SDS011;42461;53.192;5.646;2022-07-23T09:36:41;2.00;;;1.27;;
56577;SDS011;42461;53.192;5.646;2022-07-23T09:39:08;2.08;;;1.20;;
56577;SDS011;42461;53.192;5.646;2022-07-23T09:41:35;1.95;;;1.25;;
56577;SDS011;42461;53.192;5.646;2022-07-23T09:44:35;1.33;;;1.20;;
56577;SDS011;42461;53.192;5.646;2022-07-23T09:46:57;1.60;;;1.35;;
56577;SDS011;42461;53.192;5.646;2022-07-23T09:49:23;1.92;;;1.10;;
56577;SDS011;42461;53.192;5.646;2022-07-23T09:56:49;5.55;;;1.30;;
56577;SDS011;42461;53.192;5.646;2022-07-23T09:59:16;1.95;;;1.30;;
56577;SDS011;42461;53.192;5.646;2022-07-23T10:01:43;3.28;;;1.48;;
56577;SDS011;42461;53.192;5.646;2022-07-23T10:04:10;2.83;;;1.30;;
56577;SDS011;42461;53.192;5.646;2022-07-23T10:06:38;1.88;;;1.45;;
56577;SDS011;42461;53.192;5.646;2022-07-23T10:09:04;2.08;;;1.38;;
56577;SDS011;42461;53.192;5.646;2022-07-23T10:11:30;5.53;;;1.50;;
56577;SDS011;42461;53.192;5.646;2022-07-23T10:13:58;2.45;;;1.58;;
56577;SDS011;42461;53.192;5.646;2022-07-23T10:16:25;2.67;;;1.50;;
56577;SDS011;42461;53.192;5.646;2022-07-23T10:18:51;1.77;;;1.10;;
56577;SDS011;42461;53.192;5.646;2022-07-23T10:21:25;5.53;;;1.13;;
56577;SDS011;42461;53.192;5.646;2022-07-23T10:24:10;2.45;;;1.33;;
56577;SDS011;42461;53.192;5.646;2022-07-23T10:26:41;2.25;;;1.15;;
56577;SDS011;42461;53.192;5.646;2022-07-23T10:29:32;1.30;;;1.20;;
56577;SDS011;42461;53.192;5.646;2022-07-23T10:34:39;1.35;;;1.20;;
56577;SDS011;42461;53.192;5.646;2022-07-23T10:37:12;1.50;;;1.30;;
56577;SDS011;42461;53.192;5.646;2022-07-23T10:39:41;2.22;;;1.40;;
56577;SDS011;42461;53.192;5.646;2022-07-23T10:44:43;1.55;;;1.30;;
56577;SDS011;42461;53.192;5.646;2022-07-23T10:47:10;3.05;;;1.38;;
56577;SDS011;42461;53.192;5.646;2022-07-23T10:49:48;1.95;;;1.20;;
56577;SDS011;42461;53.192;5.646;2022-07-23T10:57:09;1.42;;;1.20;;
56577;SDS011;42461;53.192;5.646;2022-07-23T11:02:21;2.05;;;1.20;;
56577;SDS011;42461;53.192;5.646;2022-07-23T11:04:48;2.50;;;1.15;;
56577;SDS011;42461;53.192;5.646;2022-07-23T11:07:18;2.80;;;1.20;;
56577;SDS011;42461;53.192;5.646;2022-07-23T11:09:44;2.22;;;1.30;;
56577;SDS011;42461;53.192;5.646;2022-07-23T11:17:25;2.15;;;1.10;;
56577;SDS011;42461;53.192;5.646;2022-07-23T11:22:37;1.40;;;1.20;;
56577;SDS011;42461;53.192;5.646;2022-07-23T11:25:03;2.80;;;1.20;;
56577;SDS011;42461;53.192;5.646;2022-07-23T11:27:37;4.50;;;1.40;;
56577;SDS011;42461;53.192;5.646;2022-07-23T11:30:03;2.65;;;1.10;;
56577;SDS011;42461;53.192;5.646;2022-07-23T11:32:30;2.15;;;1.02;;
56577;SDS011;42461;53.192;5.646;2022-07-23T11:34:58;1.90;;;1.30;;
56577;SDS011;42461;53.192;5.646;2022-07-23T11:37:32;2.65;;;1.10;;
56577;SDS011;42461;53.192;5.646;2022-07-23T11:42:25;2.13;;;1.20;;
56577;SDS011;42461;53.192;5.646;2022-07-23T11:44:51;3.20;;;1.30;;
56577;SDS011;42461;53.192;5.646;2022-07-23T11:47:21;2.00;;;1.10;;
56577;SDS011;42461;53.192;5.646;2022-07-23T11:52:20;2.50;;;1.38;;
56577;SDS011;42461;53.192;5.646;2022-07-23T11:54:54;1.40;;;1.10;;
56577;SDS011;42461;53.192;5.646;2022-07-23T11:57:21;1.10;;;1.00;;
56577;SDS011;42461;53.192;5.646;2022-07-23T11:59:50;1.70;;;1.17;;
56577;SDS011;42461;53.192;5.646;2022-07-23T12:02:17;3.80;;;1.48;;
56577;SDS011;42461;53.192;5.646;2022-07-23T12:04:44;1.63;;;1.20;;
56577;SDS011;42461;53.192;5.646;2022-07-23T12:09:48;2.00;;;1.30;;
56577;SDS011;42461;53.192;5.646;2022-07-23T12:12:14;2.38;;;1.10;;
56577;SDS011;42461;53.192;5.646;2022-07-23T12:14:51;2.95;;;1.45;;
56577;SDS011;42461;53.192;5.646;2022-07-23T12:17:17;1.85;;;1.10;;
56577;SDS011;42461;53.192;5.646;2022-07-23T12:19:43;3.38;;;1.45;;
56577;SDS011;42461;53.192;5.646;2022-07-23T12:22:10;4.57;;;1.55;;
56577;SDS011;42461;53.192;5.646;2022-07-23T12:27:21;1.95;;;1.27;;
56577;SDS011;42461;53.192;5.646;2022-07-23T12:29:47;1.20;;;1.10;;
56577;SDS011;42461;53.192;5.646;2022-07-23T12:32:27;2.45;;;1.50;;
56577;SDS011;42461;53.192;5.646;2022-07-23T12:35:03;3.55;;;1.30;;
56577;SDS011;42461;53.192;5.646;2022-07-23T12:37:33;2.50;;;1.35;;
56577;SDS011;42461;53.192;5.646;2022-07-23T12:42:45;1.60;;;1.30;;
56577;SDS011;42461;53.192;5.646;2022-07-23T12:45:11;2.47;;;1.30;;
56577;SDS011;42461;53.192;5.646;2022-07-23T12:47:51;2.17;;;1.27;;
56577;SDS011;42461;53.192;5.646;2022-07-23T12:50:34;2.60;;;1.50;;
56577;SDS011;42461;53.192;5.646;2022-07-23T12:53:07;2.47;;;1.55;;
56577;SDS011;42461;53.192;5.646;2022-07-23T12:55:34;1.85;;;1.48;;
56577;SDS011;42461;53.192;5.646;2022-07-23T12:58:19;3.95;;;1.40;;
56577;SDS011;42461;53.192;5.646;2022-07-23T13:01:04;2.92;;;1.30;;
56577;SDS011;42461;53.192;5.646;2022-07-23T13:03:37;1.80;;;1.20;;
56577;SDS011;42461;53.192;5.646;2022-07-23T13:06:04;2.83;;;1.42;;
56577;SDS011;42461;53.192;5.646;2022-07-23T13:08:31;2.05;;;1.20;;
56577;SDS011;42461;53.192;5.646;2022-07-23T13:10:58;3.00;;;1.40;;
56577;SDS011;42461;53.192;5.646;2022-07-23T13:13:25;4.05;;;1.38;;
56577;SDS011;42461;53.192;5.646;2022-07-23T13:15:51;2.17;;;1.50;;
56577;SDS011;42461;53.192;5.646;2022-07-23T13:18:18;3.05;;;1.60;;
56577;SDS011;42461;53.192;5.646;2022-07-23T13:20:45;2.35;;;1.52;;
56577;SDS011;42461;53.192;5.646;2022-07-23T13:23:11;3.30;;;1.70;;
56577;SDS011;42461;53.192;5.646;2022-07-23T13:25:37;3.38;;;1.50;;
56577;SDS011;42461;53.192;5.646;2022-07-23T13:28:03;2.45;;;1.40;;
56577;SDS011;42461;53.192;5.646;2022-07-23T13:30:29;2.10;;;1.50;;
56577;SDS011;42461;53.192;5.646;2022-07-23T13:32:55;2.25;;;1.67;;
56577;SDS011;42461;53.192;5.646;2022-07-23T13:35:22;2.33;;;1.35;;
56577;SDS011;42461;53.192;5.646;2022-07-23T13:37:48;2.53;;;2.20;;
56577;SDS011;42461;53.192;5.646;2022-07-23T13:40:14;4.72;;;2.53;;
56577;SDS011;42461;53.192;5.646;2022-07-23T13:42:40;3.75;;;2.22;;
56577;SDS011;42461;53.192;5.646;2022-07-23T13:45:06;2.53;;;2.10;;
56577;SDS011;42461;53.192;5.646;2022-07-23T13:47:32;3.50;;;2.22;;
56577;SDS011;42461;53.192;5.646;2022-07-23T13:49:58;3.15;;;2.30;;
56577;SDS011;42461;53.192;5.646;2022-07-23T13:52:24;6.13;;;2.33;;
56577;SDS011;42461;53.192;5.646;2022-07-23T13:54:50;4.75;;;2.33;;
56577;SDS011;42461;53.192;5.646;2022-07-23T13:57:16;4.72;;;2.20;;
56577;SDS011;42461;53.192;5.646;2022-07-23T13:59:42;4.15;;;2.35;;
56577;SDS011;42461;53.192;5.646;2022-07-23T14:02:08;3.33;;;2.03;;
56577;SDS011;42461;53.192;5.646;2022-07-23T14:04:34;5.05;;;1.88;;
56577;SDS011;42461;53.192;5.646;2022-07-23T14:07:00;2.10;;;1.90;;
56577;SDS011;42461;53.192;5.646;2022-07-23T14:09:26;2.15;;;1.70;;
56577;SDS011;42461;53.192;5.646;2022-07-23T14:11:54;4.00;;;2.10;;
56577;SDS011;42461;53.192;5.646;2022-07-23T14:14:20;3.75;;;2.25;;
56577;SDS011;42461;53.192;5.646;2022-07-23T14:16:46;3.88;;;2.00;;
56577;SDS011;42461;53.192;5.646;2022-07-23T14:19:12;3.35;;;2.17;;
56577;SDS011;42461;53.192;5.646;2022-07-23T14:21:38;2.58;;;1.95;;
56577;SDS011;42461;53.192;5.646;2022-07-23T14:24:04;2.97;;;2.00;;
56577;SDS011;42461;53.192;5.646;2022-07-23T14:26:30;3.55;;;2.10;;
56577;SDS011;42461;53.192;5.646;2022-07-23T14:28:56;4.05;;;1.70;;
56577;SDS011;42461;53.192;5.646;2022-07-23T14:31:22;2.53;;;1.88;;
56577;SDS011;42461;53.192;5.646;2022-07-23T14:33:48;3.88;;;1.92;;
56577;SDS011;42461;53.192;5.646;2022-07-23T14:36:15;4.18;;;2.10;;
56577;SDS011;42461;53.192;5.646;2022-07-23T14:38:41;2.47;;;2.10;;
56577;SDS011;42461;53.192;5.646;2022-07-23T14:41:07;3.20;;;1.90;;
56577;SDS011;42461;53.192;5.646;2022-07-23T14:43:34;2.72;;;1.98;;
56577;SDS011;42461;53.192;5.646;2022-07-23T14:46:00;3.40;;;2.28;;
56577;SDS011;42461;53.192;5.646;2022-07-23T14:48:26;3.65;;;2.00;;
56577;SDS011;42461;53.192;5.646;2022-07-23T14:50:52;3.75;;;1.90;;
56577;SDS011;42461;53.192;5.646;2022-07-23T14:53:18;4.55;;;1.85;;
56577;SDS011;42461;53.192;5.646;2022-07-23T14:55:44;3.13;;;2.13;;
56577;SDS011;42461;53.192;5.646;2022-07-23T14:58:10;4.07;;;1.98;;
56577;SDS011;42461;53.192;5.646;2022-07-23T15:00:36;2.55;;;1.73;;
56577;SDS011;42461;53.192;5.646;2022-07-23T15:03:02;4.20;;;2.05;;
56577;SDS011;42461;53.192;5.646;2022-07-23T15:05:28;3.47;;;1.95;;
56577;SDS011;42461;53.192;5.646;2022-07-23T15:07:55;2.45;;;1.73;;
56577;SDS011;42461;53.192;5.646;2022-07-23T15:10:21;1.92;;;1.67;;
56577;SDS011;42461;53.192;5.646;2022-07-23T15:12:47;2.17;;;1.45;;
56577;SDS011;42461;53.192;5.646;2022-07-23T15:15:13;2.40;;;1.73;;
56577;SDS011;42461;53.192;5.646;2022-07-23T15:17:39;2.65;;;1.63;;
56577;SDS011;42461;53.192;5.646;2022-07-23T15:20:05;2.15;;;1.80;;
56577;SDS011;42461;53.192;5.646;2022-07-23T15:22:31;6.13;;;1.63;;
56577;SDS011;42461;53.192;5.646;2022-07-23T15:24:57;2.42;;;1.80;;
56577;SDS011;42461;53.192;5.646;2022-07-23T15:27:24;5.15;;;2.10;;
56577;SDS011;42461;53.192;5.646;2022-07-23T15:29:50;2.35;;;1.60;;